New Hope, Minnesota
Current Conditions -  °F | °C
As of 9:53 AM on Friday 28 Nov 2014 (Local Time) from KMIC Reporting Station
Overcast Overcast  
Wind Chill:   Ceiling: 2100
Heat Index: 18°   Visibility: 10mi
Dew Point:   Wind: 9mph
Humidity: 68%   Direction: 120°ESE
Pressure: 29.97"   Gusts: NA
Location:  45.0617°N, 93.3804°W
Report Text: KMIC 281553Z 12008KT 10SM OVC021 M08/M13 A2997 RMK AO2 SLP167 T10781128
Loading
Personal Weather Stations






























Interactive Weather Map New forecast layout! Learn more

10-Day Weather Forecast

Advertisements
Track Severe Weather on mobile